createdAt,value
2019-02-07T00:02:05.106Z,99.90
2019-02-07T00:04:35.531Z,99.90
2019-02-07T00:07:06.021Z,99.90
2019-02-07T00:09:36.336Z,99.90
2019-02-07T00:12:06.659Z,99.90
2019-02-07T00:14:39.773Z,99.90
2019-02-07T00:17:08.922Z,99.90
2019-02-07T00:19:39.165Z,99.90
2019-02-07T00:22:10.321Z,99.90
2019-02-07T00:24:42.877Z,99.90
2019-02-07T00:27:12.716Z,99.90
2019-02-07T00:29:42.967Z,99.90
2019-02-07T00:32:13.437Z,99.90
2019-02-07T00:34:43.693Z,99.90
2019-02-07T00:37:14.003Z,99.90
2019-02-07T00:39:44.292Z,99.90
2019-02-07T00:42:14.507Z,99.90
2019-02-07T00:44:51.542Z,99.90
2019-02-07T00:47:16.810Z,99.90
2019-02-07T00:49:47.099Z,99.90
2019-02-07T00:52:17.406Z,99.90
2019-02-07T00:54:47.794Z,99.90
2019-02-07T00:57:18.046Z,99.90
2019-02-07T00:59:48.305Z,99.90
2019-02-07T01:02:19.068Z,99.90
2019-02-07T01:04:49.393Z,99.90
2019-02-07T01:07:19.823Z,99.90
2019-02-07T01:09:50.603Z,99.90
2019-02-07T01:12:20.933Z,99.90
2019-02-07T01:15:01.449Z,99.90
2019-02-07T01:17:23.406Z,99.90
2019-02-07T01:19:53.722Z,99.90
2019-02-07T01:22:24.042Z,99.90
2019-02-07T01:24:54.431Z,99.90
2019-02-07T01:27:24.727Z,99.90
2019-02-07T01:29:55.402Z,99.90
2019-02-07T01:32:25.867Z,99.90
2019-02-07T01:34:56.169Z,99.90
2019-02-07T01:37:26.499Z,99.90
2019-02-07T01:39:56.798Z,99.90
2019-02-07T01:42:27.454Z,99.90
2019-02-07T01:44:57.781Z,99.90
2019-02-07T01:47:28.342Z,99.90
2019-02-07T01:49:58.591Z,99.90
2019-02-07T01:52:28.831Z,99.90
2019-02-07T01:54:59.159Z,99.90
2019-02-07T01:57:29.710Z,99.90
2019-02-07T01:59:59.955Z,99.90
2019-02-07T02:02:30.303Z,99.90
2019-02-07T02:05:00.690Z,99.90
2019-02-07T02:07:31.019Z,99.90
2019-02-07T02:10:01.519Z,99.90
2019-02-07T02:12:31.726Z,99.90
2019-02-07T02:15:02.046Z,99.90
2019-02-07T02:17:32.353Z,99.90
2019-02-07T02:20:02.638Z,99.90
2019-02-07T02:22:32.944Z,99.90
2019-02-07T02:25:03.456Z,99.90
2019-02-07T02:27:33.767Z,99.90
2019-02-07T02:30:06.080Z,99.90
2019-02-07T02:32:36.362Z,99.90
2019-02-07T02:35:07.146Z,99.90
2019-02-07T02:37:37.897Z,99.90
2019-02-07T02:40:08.256Z,99.90
2019-02-07T02:42:38.500Z,99.90
2019-02-07T02:45:09.940Z,99.90
2019-02-07T02:47:40.146Z,99.90
2019-02-07T02:50:12.835Z,99.90
2019-02-07T02:52:43.049Z,99.90
2019-02-07T02:55:17.274Z,99.90
2019-02-07T02:57:47.470Z,99.90
2019-02-07T03:00:21.524Z,99.90
2019-02-07T03:03:09.773Z,99.90
2019-02-07T03:06:03.343Z,99.90
2019-02-07T03:08:59.572Z,99.90
2019-02-07T03:11:40.556Z,99.90
2019-02-07T03:14:33.192Z,99.90
2019-02-07T03:17:21.540Z,99.90
2019-02-07T03:20:09.682Z,99.90
2019-02-07T03:22:57.514Z,99.90
2019-02-07T03:26:01.732Z,99.90
2019-02-07T03:28:59.920Z,99.90
2019-02-07T03:31:55.036Z,99.90
2019-02-07T03:34:45.512Z,99.90
2019-02-07T03:37:43.790Z,99.90
2019-02-07T03:40:27.015Z,99.90
2019-02-07T03:43:15.054Z,99.90
2019-02-07T03:46:04.526Z,99.90
2019-02-07T03:48:53.793Z,99.90
2019-02-07T03:51:43.271Z,99.90
2019-02-07T03:54:38.680Z,99.90
2019-02-07T03:57:43.409Z,99.90
2019-02-07T04:00:27.665Z,99.90
2019-02-07T04:03:06.483Z,99.90
2019-02-07T04:05:51.857Z,99.90
2019-02-07T04:08:40.305Z,99.90
2019-02-07T04:11:36.646Z,99.90
2019-02-07T04:14:30.924Z,99.90
2019-02-07T04:17:14.664Z,99.90
2019-02-07T04:20:02.804Z,99.90
2019-02-07T04:23:04.465Z,99.90
2019-02-07T04:25:54.754Z,99.90
2019-02-07T04:28:42.793Z,99.90
2019-02-07T04:31:28.587Z,99.90
2019-02-07T04:34:18.871Z,99.90
2019-02-07T04:37:11.315Z,99.90
2019-02-07T04:40:03.452Z,99.90
2019-02-07T04:42:46.575Z,99.90
2019-02-07T04:45:27.648Z,99.90
2019-02-07T04:48:15.890Z,99.90
2019-02-07T04:51:14.889Z,99.90
2019-02-07T04:54:07.227Z,99.90
2019-02-07T04:56:56.495Z,99.90
2019-02-07T04:59:45.864Z,99.90
2019-02-07T05:02:39.535Z,99.90
2019-02-07T05:05:27.882Z,99.90
2019-02-07T05:08:16.432Z,99.90
2019-02-07T05:11:05.802Z,99.90
2019-02-07T05:13:53.944Z,99.90
2019-02-07T05:16:43.760Z,99.90
2019-02-07T05:19:31.944Z,99.90
2019-02-07T05:22:33.730Z,99.90
2019-02-07T05:25:23.200Z,99.90
2019-02-07T05:28:31.104Z,99.90
2019-02-07T05:31:20.887Z,99.90
2019-02-07T05:34:10.255Z,99.90
2019-02-07T05:36:55.434Z,99.90
2019-02-07T05:39:44.797Z,99.90
2019-02-07T05:42:33.963Z,99.90
2019-02-07T05:45:23.539Z,99.90
2019-02-07T05:48:04.818Z,99.90
2019-02-07T05:50:54.599Z,99.90
2019-02-07T05:53:46.630Z,99.90
2019-02-07T05:56:36.414Z,99.90
2019-02-07T05:59:25.689Z,99.90
2019-02-07T06:02:13.716Z,99.90
2019-02-07T06:05:01.755Z,99.90
2019-02-07T06:07:58.298Z,99.90
2019-02-07T06:10:46.338Z,99.90
2019-02-07T06:13:41.847Z,99.90
2019-02-07T06:16:31.117Z,99.90
2019-02-07T06:19:20.488Z,99.90
2019-02-07T06:22:14.327Z,99.90
2019-02-07T06:25:06.602Z,99.90
2019-02-07T06:28:11.227Z,99.90
2019-02-07T06:31:06.329Z,99.90
2019-02-07T06:34:07.167Z,99.90
2019-02-07T06:36:58.586Z,99.90
2019-02-07T06:39:46.835Z,99.90
2019-02-07T06:42:42.448Z,99.90
2019-02-07T06:45:37.652Z,99.90
2019-02-07T06:48:35.933Z,99.90
2019-02-07T06:51:24.382Z,99.90
2019-02-07T06:54:12.525Z,99.90
2019-02-07T06:57:01.803Z,99.90
2019-02-07T06:59:57.203Z,99.90
2019-02-07T07:02:59.064Z,99.90
2019-02-07T07:05:42.193Z,99.90
2019-02-07T07:08:30.227Z,99.90
2019-02-07T07:11:19.598Z,99.90
2019-02-07T07:14:02.317Z,99.90
2019-02-07T07:16:43.183Z,99.90
2019-02-07T07:19:35.419Z,99.90
2019-02-07T07:22:24.892Z,99.90
2019-02-07T07:25:12.726Z,99.90
2019-02-07T07:27:58.826Z,99.90
2019-02-07T07:30:46.961Z,99.90
2019-02-07T07:33:35.001Z,99.90
2019-02-07T07:36:23.857Z,99.90
2019-02-07T07:39:22.341Z,99.90
2019-02-07T07:42:19.710Z,99.90
2019-02-07T07:45:09.991Z,99.90
2019-02-07T07:47:59.260Z,99.90
2019-02-07T07:50:51.701Z,99.90
2019-02-07T07:53:40.456Z,99.90
2019-02-07T07:56:33.410Z,99.90
2019-02-07T07:59:21.756Z,99.90
2019-02-07T08:02:20.205Z,99.90
2019-02-07T08:05:12.171Z,99.90
2019-02-07T08:08:00.414Z,99.90
2019-02-07T08:10:58.078Z,99.90
2019-02-07T08:14:05.879Z,99.90
2019-02-07T08:17:01.190Z,99.90
2019-02-07T08:19:50.661Z,99.90
2019-02-07T08:22:38.598Z,99.90
2019-02-07T08:25:23.061Z,99.90
2019-02-07T08:28:21.638Z,99.90
2019-02-07T08:31:29.441Z,99.90
2019-02-07T08:34:17.380Z,99.90
2019-02-07T08:37:12.993Z,99.90
2019-02-07T08:40:08.307Z,99.90
2019-02-07T08:42:58.082Z,99.90
2019-02-07T08:45:52.164Z,99.90
2019-02-07T08:48:45.018Z,99.90
2019-02-07T08:51:40.324Z,99.90
2019-02-07T08:54:35.428Z,99.90
2019-02-07T08:57:24.800Z,99.90
2019-02-07T09:00:12.734Z,99.90
2019-02-07T09:03:02.003Z,99.90
2019-02-07T09:05:47.178Z,99.90
2019-02-07T09:08:45.761Z,99.90
2019-02-07T09:11:35.540Z,99.90
2019-02-07T09:14:17.336Z,99.90
2019-02-07T09:17:10.288Z,99.90
2019-02-07T09:19:59.656Z,99.90
2019-02-07T09:23:01.314Z,99.90
2019-02-07T09:25:50.683Z,99.90
2019-02-07T09:28:52.342Z,99.90
2019-02-07T09:31:34.241Z,99.90
2019-02-07T09:34:30.450Z,99.90
2019-02-07T09:37:25.574Z,99.90
2019-02-07T09:40:15.249Z,99.90
2019-02-07T09:43:10.742Z,99.90
2019-02-07T09:45:59.183Z,99.90
2019-02-07T09:48:54.419Z,99.90
2019-02-07T09:51:39.181Z,99.90
2019-02-07T09:54:34.285Z,99.90
2019-02-07T09:57:23.757Z,99.90
2019-02-07T10:00:22.444Z,99.90
2019-02-07T10:03:10.383Z,99.90
2019-02-07T10:06:08.767Z,99.90
2019-02-07T10:08:48.310Z,99.90
2019-02-07T10:11:43.510Z,98.90
2019-02-07T10:14:42.101Z,99.90
2019-02-07T10:17:36.893Z,97.80
2019-02-07T10:20:37.402Z,99.40
2019-02-07T10:23:27.008Z,98.80
2019-02-07T10:26:35.316Z,99.20
2019-02-07T10:29:30.929Z,96.50
2019-02-07T10:32:32.383Z,95.60
2019-02-07T10:35:29.330Z,94.60
2019-02-07T10:38:17.471Z,93.50
2019-02-07T10:41:19.436Z,93.40
2019-02-07T10:44:08.807Z,93.60
2019-02-07T10:46:56.612Z,92.20
2019-02-07T10:49:46.008Z,93.40
2019-02-07T10:52:34.665Z,93.50
2019-02-07T10:55:37.021Z,92.70
2019-02-07T10:58:49.470Z,92.30
2019-02-07T11:01:44.399Z,93.20
2019-02-07T11:04:39.024Z,91.70
2019-02-07T11:07:29.337Z,86.10
2019-02-07T11:10:16.659Z,90.40
2019-02-07T11:13:04.488Z,84.90
2019-02-07T11:15:56.525Z,87.50
2019-02-07T11:18:55.098Z,87.00
2019-02-07T11:21:34.137Z,91.20
2019-02-07T11:24:21.970Z,92.70
2019-02-07T11:27:26.089Z,91.70
2019-02-07T11:30:33.580Z,92.00
2019-02-07T11:33:32.065Z,90.90
2019-02-07T11:36:21.432Z,90.70
2019-02-07T11:39:09.678Z,90.00
2019-02-07T11:41:57.640Z,90.40
2019-02-07T11:44:45.447Z,90.80
2019-02-07T11:47:37.786Z,92.10
2019-02-07T11:50:40.877Z,91.20
2019-02-07T11:53:29.224Z,92.70
2019-02-07T11:56:17.363Z,89.80
2019-02-07T11:59:07.150Z,87.00
2019-02-07T12:01:56.514Z,86.40
2019-02-07T12:05:00.938Z,82.30
2019-02-07T12:07:49.897Z,83.70
2019-02-07T12:10:43.056Z,88.00
2019-02-07T12:13:47.785Z,87.70
2019-02-07T12:16:32.450Z,89.50
2019-02-07T12:19:25.812Z,87.60
2019-02-07T12:22:24.393Z,88.50
2019-02-07T12:25:16.734Z,87.10
2019-02-07T12:28:06.104Z,87.80
2019-02-07T12:30:58.239Z,88.70
2019-02-07T12:33:56.619Z,87.30
2019-02-07T12:36:48.865Z,85.20
2019-02-07T12:39:38.329Z,87.00
2019-02-07T12:42:26.603Z,86.70
2019-02-07T12:45:25.260Z,86.40
2019-02-07T12:48:13.097Z,83.80
2019-02-07T12:51:02.221Z,84.40
2019-02-07T12:53:52.346Z,87.10
2019-02-07T12:56:36.493Z,87.30
2019-02-07T12:59:24.942Z,86.50
2019-02-07T13:02:13.491Z,84.70
2019-02-07T13:05:06.695Z,90.20
2019-02-07T13:07:58.007Z,90.40
2019-02-07T13:11:05.257Z,91.40
2019-02-07T13:13:57.416Z,92.60
2019-02-07T13:16:45.646Z,93.30
2019-02-07T13:19:47.234Z,94.70
2019-02-07T13:22:41.513Z,92.20
2019-02-07T13:25:39.810Z,93.60
2019-02-07T13:28:37.784Z,93.80
2019-02-07T13:31:32.516Z,95.80
2019-02-07T13:34:24.242Z,95.40
2019-02-07T13:37:22.424Z,92.40
2019-02-07T13:40:12.408Z,94.60
2019-02-07T13:43:20.109Z,94.50
2019-02-07T13:46:17.029Z,92.60
2019-02-07T13:49:04.991Z,93.90
2019-02-07T13:52:09.720Z,94.80
2019-02-07T13:55:02.165Z,94.30
2019-02-07T13:57:52.590Z,94.20
2019-02-07T14:00:39.060Z,96.10
2019-02-07T14:03:37.645Z,97.30
2019-02-07T14:06:25.686Z,96.70
2019-02-07T14:09:29.799Z,98.90
2019-02-07T14:12:13.641Z,98.90
2019-02-07T14:15:12.124Z,99.90
2019-02-07T14:18:05.691Z,99.80
2019-02-07T14:20:56.496Z,99.60
2019-02-07T14:23:45.456Z,99.80
2019-02-07T14:26:37.796Z,99.90
2019-02-07T14:29:30.135Z,99.90
2019-02-07T14:32:25.750Z,99.90
2019-02-07T14:35:20.866Z,99.90
2019-02-07T14:38:12.991Z,99.90
2019-02-07T14:41:17.413Z,99.90
2019-02-07T14:44:00.229Z,99.90
2019-02-07T14:46:55.642Z,99.90
2019-02-07T14:49:25.942Z,99.90
2019-02-07T14:51:56.559Z,99.90
2019-02-07T14:54:26.840Z,99.50
2019-02-07T14:56:57.142Z,99.90
2019-02-07T14:59:27.672Z,99.80
2019-02-07T15:01:58.307Z,99.80
2019-02-07T15:04:28.712Z,99.70
2019-02-07T15:06:59.007Z,99.20
2019-02-07T15:09:29.307Z,99.40
2019-02-07T15:12:00.150Z,99.90
2019-02-07T15:14:35.753Z,99.90
2019-02-07T15:17:06.152Z,99.90
2019-02-07T15:19:36.660Z,99.90
2019-02-07T15:22:07.384Z,99.80
2019-02-07T15:24:37.652Z,98.30
2019-02-07T15:27:08.070Z,99.50
2019-02-07T15:29:38.444Z,99.90
2019-02-07T15:32:08.682Z,99.90
2019-02-07T15:35:03.243Z,99.90
2019-02-07T15:37:39.150Z,99.90
2019-02-07T15:40:37.478Z,99.90
2019-02-07T15:43:26.396Z,99.90
2019-02-07T15:46:15.780Z,99.90
2019-02-07T15:49:19.352Z,99.90
2019-02-07T15:52:15.150Z,99.90
2019-02-07T15:55:18.033Z,99.90
2019-02-07T15:58:07.143Z,99.90
2019-02-07T16:01:13.677Z,99.90
2019-02-07T16:04:28.931Z,99.90
2019-02-07T16:07:24.093Z,99.90
2019-02-07T16:09:53.687Z,99.90
2019-02-07T16:12:33.785Z,99.90
2019-02-07T16:15:18.125Z,99.90
2019-02-07T16:18:05.152Z,99.90
2019-02-07T16:20:48.854Z,99.90
2019-02-07T16:23:31.444Z,99.90
2019-02-07T16:26:08.308Z,99.90
2019-02-07T16:28:54.980Z,99.90
2019-02-07T16:32:09.087Z,99.90
2019-02-07T16:34:52.961Z,99.90
2019-02-07T16:37:29.568Z,99.90
2019-02-07T16:40:00.374Z,99.90
2019-02-07T16:42:30.718Z,99.90
2019-02-07T16:45:01.015Z,99.90
2019-02-07T16:47:31.346Z,99.90
2019-02-07T16:50:01.868Z,99.90
2019-02-07T16:52:33.795Z,99.90
2019-02-07T16:55:06.212Z,99.90
2019-02-07T16:57:37.419Z,99.90
2019-02-07T17:00:21.870Z,99.90
2019-02-07T17:02:53.499Z,99.90
2019-02-07T17:05:25.058Z,99.90
2019-02-07T17:07:55.603Z,99.90
2019-02-07T17:10:29.619Z,99.90
2019-02-07T17:13:02.747Z,99.90
2019-02-07T17:15:33.326Z,99.90
2019-02-07T17:18:03.572Z,99.90
2019-02-07T17:20:33.969Z,99.90
2019-02-07T17:23:05.095Z,99.90
2019-02-07T17:25:35.534Z,99.90
2019-02-07T17:28:06.159Z,99.90
2019-02-07T17:30:37.022Z,99.90
2019-02-07T17:33:07.435Z,99.90
2019-02-07T17:35:37.756Z,99.90
2019-02-07T17:38:08.065Z,99.90
2019-02-07T17:40:38.444Z,99.90
2019-02-07T17:43:08.778Z,99.90
2019-02-07T17:45:39.122Z,99.90
2019-02-07T17:48:09.593Z,99.90
2019-02-07T17:50:39.919Z,99.90
2019-02-07T17:53:10.369Z,99.90
2019-02-07T17:55:40.684Z,99.90
2019-02-07T17:58:11.681Z,99.90
2019-02-07T18:01:03.157Z,99.90
2019-02-07T18:03:34.235Z,99.90
2019-02-07T18:06:05.844Z,99.90
2019-02-07T18:08:36.136Z,99.90
2019-02-07T18:11:07.017Z,99.90
2019-02-07T18:13:37.636Z,99.90
2019-02-07T18:16:08.140Z,99.90
2019-02-07T18:18:38.344Z,99.90
2019-02-07T18:21:08.672Z,99.90
2019-02-07T18:23:38.932Z,99.90
2019-02-07T18:26:09.818Z,99.90
2019-02-07T18:28:40.291Z,99.90
2019-02-07T18:31:11.786Z,99.90
2019-02-07T18:33:42.775Z,99.90
2019-02-07T18:36:14.642Z,99.90
2019-02-07T18:38:44.985Z,99.90
2019-02-07T18:41:15.276Z,99.90
2019-02-07T18:43:46.503Z,99.90
2019-02-07T18:46:18.733Z,99.90
2019-02-07T18:48:49.456Z,99.90
2019-02-07T18:51:20.694Z,99.90
2019-02-07T18:53:51.669Z,99.90
2019-02-07T18:56:23.350Z,99.90
2019-02-07T18:58:54.002Z,99.90
2019-02-07T19:01:24.592Z,99.90
2019-02-07T19:03:55.668Z,99.90
2019-02-07T19:06:27.103Z,99.90
2019-02-07T19:08:58.312Z,99.90
2019-02-07T19:11:29.129Z,99.90
2019-02-07T19:14:00.262Z,99.90
2019-02-07T19:16:32.264Z,99.90
2019-02-07T19:19:03.783Z,99.90
2019-02-07T19:21:35.069Z,99.90
2019-02-07T19:24:06.672Z,99.90
2019-02-07T19:26:39.215Z,99.90
2019-02-07T19:29:12.018Z,99.90
2019-02-07T19:31:47.099Z,99.90
2019-02-07T19:34:19.679Z,99.90
2019-02-07T19:36:50.368Z,99.90
2019-02-07T19:39:21.033Z,99.90
2019-02-07T19:41:52.144Z,99.90
2019-02-07T19:44:23.771Z,99.90
2019-02-07T19:46:55.367Z,99.90
2019-02-07T19:49:26.132Z,99.90
2019-02-07T19:52:07.736Z,99.90
2019-02-07T19:54:30.009Z,99.90
2019-02-07T19:57:00.734Z,99.90
2019-02-07T19:59:31.603Z,99.90
2019-02-07T20:02:03.026Z,99.90
2019-02-07T20:04:34.675Z,99.90
2019-02-07T20:07:05.874Z,99.90
2019-02-07T20:09:36.832Z,99.90
2019-02-07T20:12:07.447Z,99.90
2019-02-07T20:14:37.881Z,99.90
2019-02-07T20:17:08.360Z,99.90
2019-02-07T20:19:38.893Z,99.90
2019-02-07T20:22:19.867Z,99.90
2019-02-07T20:24:46.166Z,99.90
2019-02-07T20:27:14.545Z,99.90
2019-02-07T20:29:44.948Z,99.90
2019-02-07T20:32:15.396Z,99.90
2019-02-07T20:34:45.768Z,99.90
2019-02-07T20:37:16.367Z,99.90
2019-02-07T20:39:46.668Z,99.90
2019-02-07T20:42:17.024Z,99.90
2019-02-07T20:44:47.343Z,99.90
2019-02-07T20:47:17.760Z,99.90
2019-02-07T20:49:48.191Z,99.90
2019-02-07T20:52:18.714Z,99.90
2019-02-07T20:54:49.133Z,99.90
2019-02-07T20:57:19.494Z,99.90
2019-02-07T20:59:49.766Z,99.90
2019-02-07T21:02:20.126Z,99.90
2019-02-07T21:04:50.447Z,99.90
2019-02-07T21:07:21.127Z,99.90
2019-02-07T21:09:51.462Z,99.90
2019-02-07T21:12:21.756Z,99.90
2019-02-07T21:14:52.035Z,99.90
2019-02-07T21:17:22.441Z,99.90
2019-02-07T21:19:52.843Z,99.90
2019-02-07T21:22:23.509Z,99.90
2019-02-07T21:24:53.804Z,99.90
2019-02-07T21:27:24.279Z,99.90
2019-02-07T21:29:54.588Z,99.90
2019-02-07T21:32:24.915Z,99.90
2019-02-07T21:34:55.434Z,99.90
2019-02-07T21:37:25.946Z,99.90
2019-02-07T21:39:56.257Z,99.90
2019-02-07T21:42:26.807Z,99.90
2019-02-07T21:44:57.083Z,99.90
2019-02-07T21:47:27.344Z,99.90
2019-02-07T21:49:57.750Z,99.90
2019-02-07T21:52:28.313Z,99.90
2019-02-07T21:54:58.603Z,99.90
2019-02-07T21:57:28.886Z,99.90
2019-02-07T22:00:00.869Z,99.90
2019-02-07T22:02:31.254Z,99.90
2019-02-07T22:05:01.642Z,99.90
2019-02-07T22:07:32.186Z,99.90
2019-02-07T22:10:02.503Z,99.90
2019-02-07T22:12:32.761Z,99.90
2019-02-07T22:15:03.072Z,99.90
2019-02-07T22:17:33.379Z,99.90
2019-02-07T22:20:03.717Z,99.90
2019-02-07T22:22:34.006Z,99.90
2019-02-07T22:25:04.744Z,99.90
2019-02-07T22:27:35.934Z,99.90
2019-02-07T22:30:09.313Z,99.90
2019-02-07T22:32:39.673Z,99.90
2019-02-07T22:35:10.479Z,99.90
2019-02-07T22:37:40.775Z,99.90
2019-02-07T22:40:14.240Z,99.90
2019-02-07T22:42:48.035Z,99.90
2019-02-07T22:45:16.864Z,99.90
2019-02-07T22:47:47.781Z,99.90
2019-02-07T22:50:20.183Z,99.90
2019-02-07T22:52:56.799Z,99.90
2019-02-07T22:55:22.705Z,99.90
2019-02-07T22:57:53.195Z,99.90
2019-02-07T23:01:10.542Z,99.90
2019-02-07T23:03:52.225Z,99.90
2019-02-07T23:06:22.782Z,99.90
2019-02-07T23:08:53.834Z,99.90
2019-02-07T23:11:25.045Z,99.90
2019-02-07T23:13:56.038Z,99.90
2019-02-07T23:16:26.813Z,99.90
2019-02-07T23:18:57.846Z,99.90
2019-02-07T23:21:29.180Z,99.90
2019-02-07T23:23:59.817Z,99.90
2019-02-07T23:26:30.548Z,99.90
2019-02-07T23:29:01.396Z,99.90
2019-02-07T23:31:32.200Z,99.90
2019-02-07T23:34:02.824Z,99.90
2019-02-07T23:36:33.267Z,99.90
2019-02-07T23:39:04.668Z,99.90
2019-02-07T23:41:34.926Z,99.90
2019-02-07T23:44:06.467Z,99.90
2019-02-07T23:46:36.842Z,99.90
2019-02-07T23:49:07.372Z,99.90
2019-02-07T23:51:37.883Z,99.90
2019-02-07T23:54:08.183Z,99.90
2019-02-07T23:56:38.450Z,99.90
2019-02-07T23:59:09.230Z,99.90
